DW8749 Weather Reports


Display with metric or nautical units.
time (UTC)temp
F
wind
direction
speed
MPH
gust
MPH
rain 1hr
in
rain 24hr
in
rain mn
in
humidity
%
barometer
mb
20240526213005 83 96 2.0 13.0 0.00 0.01 0.00 38 1001.8
20240526211503 82 135 0.0 11.0 0.00 0.01 0.00 40 1001.7
20240526210002 82 127 2.0 10.0 0.00 0.01 0.00 41 1001.7
20240526204609 82 111 0.0 9.0 0.00 0.01 0.00 41 1001.7
20240526203152 82 136 4.0 11.0 0.00 0.01 0.00 42 1001.7
20240526201600 82 94 4.0 13.0 0.00 0.01 0.00 44 1001.6
20240526200056 81 103 4.0 15.0 0.00 0.01 0.00 40 1001.5
20240526194554 82 153 0.0 0.0 0.00 0.01 0.00 48 1001.4
20240526193051 80 110 3.0 10.0 0.00 0.01 0.00 50 1001.5
20240526191552 80 115 0.0 0.0 0.00 0.01 0.00 51 1001.6
20240526190047 81 144 0.0 4.0 0.00 0.01 0.00 53 1001.4
20240526184555 79 122 0.0 2.0 0.00 0.01 0.00 56 1001.3
20240526183052 78 72 0.0 4.0 0.00 0.01 0.00 55 1001.3
20240526181542 78 125 0.0 0.0 0.00 0.01 0.00 54 1001.2
20240526180043 78 114 0.0 0.0 0.00 0.01 0.00 55 1001.0
20240526174537 78 106 0.0 4.0 0.00 0.01 0.00 58 1001.0
20240526173037 77 114 0.0 9.0 0.00 0.01 0.00 58 1000.9
20240526171539 77 117 0.0 9.0 0.00 0.01 0.00 60 1000.8
20240526170033 76 111 0.0 13.0 0.00 0.01 0.00 63 1000.8
20240526164532 76 101 4.0 9.0 0.00 0.01 0.00 64 1000.9
20240526163037 75 112 0.0 9.0 0.00 0.01 0.00 68 1000.8
20240526161531 74 125 3.0 11.0 0.00 0.01 0.00 70 1000.6
20240526160022 73 119 0.0 0.0 0.00 0.01 0.00 73 1000.7
20240526154518 71 127 0.0 11.0 0.00 0.01 0.00 76 1000.7
20240526153030 71 122 0.0 10.0 0.00 0.01 0.00 75 1000.8
20240526151512 70 117 0.0 0.0 0.00 0.01 0.00 78 1000.7
20240526150010 69 119 0.0 0.0 0.00 0.01 0.00 77 1000.7
20240526144511 68 123 0.0 0.0 0.00 0.01 0.00 79 1000.6
20240526143008 67 113 0.0 0.0 0.00 0.01 0.00 79 1000.6
20240526141506 67 106 0.0 0.0 0.00 0.01 0.00 78 1000.4
20240526140016 66 109 0.0 0.0 0.00 0.01 0.00 80 1000.2
20240526134502 66 115 0.0 0.0 0.00 0.01 0.00 81 999.9
20240526133059 66 113 0.0 0.0 0.00 0.01 0.00 82 999.4
20240526131558 65 106 0.0 0.0 0.00 0.01 0.00 83 999.2
20240526130058 63 114 0.0 0.0 0.00 0.01 0.00 86 999.0
20240526124619 62 114 0.0 0.0 0.00 0.01 0.00 88 999.0
20240526123100 62 115 0.0 0.0 0.00 0.01 0.00 89 998.8
20240526121552 61 320 0.0 0.0 0.00 0.01 0.00 91 998.3
20240526120050 60 320 0.0 0.0 0.00 0.01 0.00 91 997.9
20240526114548 60 320 0.0 0.0 0.00 0.01 0.00 91 997.9
20240526113045 60 320 0.0 0.0 0.00 0.01 0.00 90 997.8
20240526111554 61 320 0.0 0.0 0.00 0.01 0.00 89 997.7
20240526110036 62 320 0.0 4.0 0.00 0.01 0.00 88 997.3
20240526104513 62 13 0.0 3.0 0.00 0.01 0.00 88 997.0
20240526103011 62 283 1.0 7.0 0.00 0.01 0.00 88 996.6
20240526101512 62 241 1.0 6.0 0.00 0.01 0.00 87 996.7
20240526100009 63 251 4.0 12.0 0.00 0.01 0.00 87 996.5
20240526094505 63 258 5.0 13.0 0.00 0.01 0.00 87 996.2
20240526093001 64 4 3.0 13.0 0.00 0.01 0.00 86 996.1
20240526091602 65 255 2.0 10.0 0.00 0.01 0.00 85 996.0
20240526090057 66 79 1.0 9.0 0.00 0.01 0.00 85 995.7
20240526084653 67 257 3.0 12.0 0.00 0.01 0.00 89 995.5
20240526083059 67 114 1.0 5.0 0.00 0.01 0.00 89 995.7
20240526081558 67 132 0.0 3.0 0.00 0.01 0.00 89 995.7
20240526080106 67 88 0.0 6.0 0.00 0.01 0.00 90 995.5
20240526074556 67 127 0.0 4.0 0.00 0.01 0.00 90 995.4
20240526073103 67 34 0.0 2.0 0.00 0.01 0.00 90 995.3
20240526071607 68 102 0.0 0.0 0.00 0.01 0.00 91 995.0
20240526070105 68 87 0.0 1.0 0.00 0.01 0.00 91 994.4
20240526064551 68 55 0.0 4.0 0.00 0.01 0.00 91 994.0
20240526063047 68 38 1.0 11.0 0.00 0.01 0.00 90 993.9
20240526061556 67 324 4.0 10.0 0.00 0.01 0.00 89 994.2
20240526060100 67 326 2.0 12.0 0.00 0.01 0.00 87 994.3
20240526054557 68 324 5.0 14.0 0.00 0.01 0.00 86 994.5
20240526053041 68 360 5.0 12.0 0.00 0.01 0.00 85 994.7
20240526051537 68 37 5.0 15.0 0.00 0.01 0.00 83 995.0
20240526050010 68 66 3.0 9.0 0.00 0.01 0.00 82 995.3
20240526044509 68 333 3.0 10.0 0.00 0.01 0.01 80 995.6
20240526043007 69 39 1.0 10.0 0.00 0.01 0.01 79 995.4
20240526041507 69 7 4.0 11.0 0.00 0.01 0.01 77 994.8
20240526040005 69 360 4.0 16.0 0.00 0.01 0.01 76 994.7
20240526034506 70 35 4.0 12.0 0.00 0.01 0.01 75 994.5
20240526033004 70 308 3.0 12.0 0.00 0.01 0.01 74 994.3
20240526031504 71 323 5.0 14.0 0.00 0.01 0.01 73 994.4
20240526030003 71 333 8.0 15.0 0.00 0.01 0.01 74 994.5
20240526024502 71 316 10.0 22.0 0.00 0.01 0.01 73 994.4
20240526023001 72 313 9.0 24.0 0.00 0.01 0.01 69 994.4
20240526021501 75 311 11.0 27.0 0.00 0.01 0.01 64 994.6
20240526020100 79 334 8.0 16.0 0.00 0.01 0.01 59 994.2
20240526020001 79 316 7.0 16.0 0.00 0.01 0.01 61 994.2
20240526014559 80 312 6.0 13.0 0.00 0.01 0.01 58 994.1
20240526014502 80 299 5.0 13.0 0.00 0.01 0.01 57 994.2
20240526013059 81 312 4.0 12.0 0.00 0.01 0.01 53 993.8
20240526011558 82 338 5.0 13.0 0.00 0.01 0.01 51 993.8
20240526010058 84 333 5.0 15.0 0.00 0.01 0.01 48 993.5
20240526004555 84 39 4.0 13.0 0.00 0.01 0.01 46 994.1
20240526003056 85 337 6.0 15.0 0.01 0.01 0.01 43 994.2
20240526001551 85 324 7.0 16.0 0.01 0.01 0.01 48 994.7
20240526000053 84 11 6.0 15.0 0.01 0.01 0.01 54 994.8
20240525234601 84 335 2.0 15.0 0.01 0.01 0.01 55 995.6
20240525233046 86 1 7.0 18.0 0.00 0.00 0.00 45 995.4
20240525231551 88 335 6.0 18.0 0.00 0.00 0.00 43 995.6
20240525230047 88 34 6.0 15.0 0.00 0.00 0.00 43 995.4
20240525224628 89 327 8.0 15.0 0.00 0.00 0.00 42 995.4
20240525223043 88 28 7.0 15.0 0.00 0.00 0.00 42 996.1
20240525221541 88 302 7.0 16.0 0.00 0.00 0.00 41 996.9
20240525220041 88 5 7.0 14.0 0.00 0.00 0.00 41 997.3
20240525214535 88 360 7.0 19.0 0.00 0.00 0.00 42 997.6